createdAt,value
2022-09-11T00:01:16.101Z,73.75
2022-09-11T00:03:43.949Z,73.74
2022-09-11T00:06:14.178Z,73.48
2022-09-11T00:08:41.773Z,73.42
2022-09-11T00:11:13.832Z,73.26
2022-09-11T00:13:40.894Z,73.25
2022-09-11T00:16:19.096Z,73.02
2022-09-11T00:18:46.934Z,73.09
2022-09-11T00:21:13.630Z,72.57
2022-09-11T00:23:40.354Z,72.84
2022-09-11T00:26:07.423Z,72.67
2022-09-11T00:28:34.643Z,72.82
2022-09-11T00:31:03.846Z,72.79
2022-09-11T00:33:30.800Z,72.61
2022-09-11T00:36:00.512Z,72.53
2022-09-11T00:38:29.113Z,72.95
2022-09-11T00:40:58.453Z,73.02
2022-09-11T00:43:27.429Z,73.36
2022-09-11T00:46:03.711Z,72.88
2022-09-11T00:48:34.436Z,73.16
2022-09-11T00:51:03.969Z,72.81
2022-09-11T00:53:34.613Z,73.24
2022-09-11T00:56:04.105Z,73.20
2022-09-11T00:58:35.918Z,72.88
2022-09-11T01:01:03.515Z,72.68
2022-09-11T01:03:32.273Z,72.74
2022-09-11T01:05:59.796Z,72.56
2022-09-11T01:08:26.442Z,72.52
2022-09-11T01:11:31.815Z,72.74
2022-09-11T01:14:09.931Z,72.97
2022-09-11T01:16:56.713Z,73.40
2022-09-11T01:19:40.590Z,73.41
2022-09-11T01:22:13.349Z,73.55
2022-09-11T01:25:05.114Z,73.57
2022-09-11T01:27:40.864Z,73.85
2022-09-11T01:30:11.903Z,73.71
2022-09-11T01:33:00.260Z,73.43
2022-09-11T01:35:48.299Z,74.04
2022-09-11T01:38:46.292Z,73.82
2022-09-11T01:41:17.349Z,73.37
2022-09-11T01:43:56.772Z,73.50
2022-09-11T01:46:25.832Z,73.39
2022-09-11T01:49:01.867Z,73.53
2022-09-11T01:51:30.923Z,73.55
2022-09-11T01:54:00.274Z,73.12
2022-09-11T01:56:34.765Z,73.31
2022-09-11T01:59:05.242Z,73.33
2022-09-11T02:01:37.062Z,72.90
2022-09-11T02:04:19.431Z,72.61
2022-09-11T02:06:49.559Z,73.05
2022-09-11T02:09:20.437Z,72.64
2022-09-11T02:11:48.800Z,72.94
2022-09-11T02:14:26.054Z,72.88
2022-09-11T02:17:15.577Z,73.04
2022-09-11T02:19:43.323Z,73.28
2022-09-11T02:22:10.068Z,72.97
2022-09-11T02:24:37.770Z,73.18
2022-09-11T02:27:07.966Z,73.10
2022-09-11T02:29:35.256Z,73.24
2022-09-11T02:32:04.036Z,73.12
2022-09-11T02:34:34.792Z,72.92
2022-09-11T02:37:12.094Z,72.82
2022-09-11T02:40:06.196Z,72.89
2022-09-11T02:42:35.571Z,72.89
2022-09-11T02:45:23.351Z,73.16
2022-09-11T02:47:50.500Z,72.88
2022-09-11T02:50:43.762Z,72.98
2022-09-11T02:53:24.548Z,73.18
2022-09-11T02:56:04.956Z,73.12
2022-09-11T02:58:38.758Z,73.02
2022-09-11T03:01:08.545Z,73.03
2022-09-11T03:03:45.777Z,72.62
2022-09-11T03:06:24.953Z,72.87
2022-09-11T03:08:51.953Z,72.71
2022-09-11T03:11:20.139Z,72.84
2022-09-11T03:13:48.873Z,72.73
2022-09-11T03:16:16.576Z,72.77
2022-09-11T03:18:44.227Z,73.13
2022-09-11T03:21:11.903Z,73.29
2022-09-11T03:23:38.871Z,73.51
2022-09-11T03:26:05.687Z,73.26
2022-09-11T03:28:32.687Z,73.49
2022-09-11T03:30:59.508Z,73.87
2022-09-11T03:33:26.707Z,73.91
2022-09-11T03:35:53.644Z,74.54
2022-09-11T03:38:20.686Z,75.00
2022-09-11T03:40:47.667Z,75.77
2022-09-11T03:43:16.762Z,75.96
2022-09-11T03:45:44.915Z,76.40
2022-09-11T03:48:13.436Z,76.27
2022-09-11T03:50:40.359Z,76.02
2022-09-11T03:53:08.701Z,76.86
2022-09-11T03:55:35.458Z,77.67
2022-09-11T03:58:02.187Z,77.46
2022-09-11T04:00:29.005Z,77.82
2022-09-11T04:02:57.318Z,77.40
2022-09-11T04:05:45.235Z,77.16
2022-09-11T04:08:13.325Z,76.59
2022-09-11T04:10:43.272Z,76.72
2022-09-11T04:13:09.934Z,76.52
2022-09-11T04:15:36.641Z,76.05
2022-09-11T04:18:07.352Z,76.55
2022-09-11T04:20:39.777Z,76.19
2022-09-11T04:23:07.138Z,76.13
2022-09-11T04:25:33.856Z,75.72
2022-09-11T04:28:02.800Z,75.44
2022-09-11T04:30:29.599Z,75.51
2022-09-11T04:32:56.312Z,75.64
2022-09-11T04:35:23.443Z,75.95
2022-09-11T04:37:55.126Z,75.44
2022-09-11T04:40:21.888Z,75.48
2022-09-11T04:42:48.661Z,75.43
2022-09-11T04:45:15.482Z,75.95
2022-09-11T04:47:42.500Z,75.58
2022-09-11T04:50:12.966Z,75.92
2022-09-11T04:52:40.973Z,75.95
2022-09-11T04:55:08.867Z,76.17
2022-09-11T04:57:35.553Z,75.93
2022-09-11T05:00:02.677Z,76.23
2022-09-11T05:02:29.437Z,76.60
2022-09-11T05:04:56.608Z,76.38
2022-09-11T05:07:25.299Z,76.48
2022-09-11T05:09:54.610Z,76.21
2022-09-11T05:12:22.158Z,76.26
2022-09-11T05:14:48.903Z,76.52
2022-09-11T05:17:15.678Z,76.26
2022-09-11T05:19:43.646Z,76.07
2022-09-11T05:22:10.576Z,76.14
2022-09-11T05:24:41.585Z,76.54
2022-09-11T05:27:12.157Z,76.71
2022-09-11T05:29:39.320Z,76.25
2022-09-11T05:32:10.980Z,76.56
2022-09-11T05:34:37.650Z,76.78
2022-09-11T05:37:05.590Z,76.84
2022-09-11T05:39:38.136Z,76.58
2022-09-11T05:42:06.428Z,76.56
2022-09-11T05:44:37.114Z,76.10
2022-09-11T05:47:04.894Z,76.62
2022-09-11T05:49:32.146Z,76.19
2022-09-11T05:52:01.276Z,76.14
2022-09-11T05:54:29.756Z,76.29
2022-09-11T05:57:07.443Z,76.55
2022-09-11T05:59:36.797Z,76.44
2022-09-11T06:02:03.775Z,76.83
2022-09-11T06:04:39.108Z,76.78
2022-09-11T06:07:06.887Z,76.84
2022-09-11T06:09:34.675Z,76.51
2022-09-11T06:12:01.926Z,76.68
2022-09-11T06:14:29.336Z,76.37
2022-09-11T06:16:57.470Z,76.76
2022-09-11T06:19:25.878Z,76.07
2022-09-11T06:21:52.699Z,76.10
2022-09-11T06:24:30.012Z,76.08
2022-09-11T06:26:57.218Z,76.07
2022-09-11T06:29:26.120Z,76.29
2022-09-11T06:31:54.348Z,75.79
2022-09-11T06:34:24.094Z,75.51
2022-09-11T06:36:52.490Z,75.52
2022-09-11T06:39:23.080Z,75.52
2022-09-11T06:41:50.795Z,76.09
2022-09-11T06:44:20.208Z,76.37
2022-09-11T06:46:47.928Z,76.14
2022-09-11T06:49:14.770Z,76.03
2022-09-11T06:52:10.539Z,76.47
2022-09-11T06:54:38.872Z,76.14
2022-09-11T06:57:10.012Z,76.35
2022-09-11T06:59:36.822Z,75.93
2022-09-11T07:02:04.033Z,75.93
2022-09-11T07:04:30.970Z,75.83
2022-09-11T07:06:59.317Z,75.87
2022-09-11T07:09:26.293Z,75.94
2022-09-11T07:11:55.828Z,76.17
2022-09-11T07:14:25.053Z,75.96
2022-09-11T07:16:58.680Z,75.58
2022-09-11T07:19:27.768Z,74.96
2022-09-11T07:21:54.729Z,74.83
2022-09-11T07:24:24.724Z,74.53
2022-09-11T07:26:51.525Z,74.52
2022-09-11T07:29:25.327Z,74.77
2022-09-11T07:31:52.307Z,74.72
2022-09-11T07:34:19.199Z,74.24
2022-09-11T07:36:46.793Z,74.03
2022-09-11T07:39:13.514Z,74.10
2022-09-11T07:42:00.509Z,74.12
2022-09-11T07:44:30.291Z,74.04
2022-09-11T07:46:57.914Z,74.20
2022-09-11T07:49:25.098Z,74.33
2022-09-11T07:51:54.411Z,73.78
2022-09-11T07:54:31.229Z,73.81
2022-09-11T07:56:58.529Z,73.32
2022-09-11T07:59:25.466Z,73.54
2022-09-11T08:01:54.348Z,73.39
2022-09-11T08:04:23.305Z,73.66
2022-09-11T08:06:50.965Z,73.80
2022-09-11T08:09:22.046Z,73.22
2022-09-11T08:11:58.622Z,72.70
2022-09-11T08:14:27.474Z,72.35
2022-09-11T08:16:58.832Z,72.25
2022-09-11T08:19:28.277Z,72.33
2022-09-11T08:21:58.826Z,71.69
2022-09-11T08:24:27.571Z,70.93
2022-09-11T08:26:59.158Z,69.99
2022-09-11T08:29:26.787Z,69.29
2022-09-11T08:31:58.146Z,68.06
2022-09-11T08:34:28.693Z,67.78
2022-09-11T08:36:55.453Z,68.06
2022-09-11T08:39:25.451Z,66.97
2022-09-11T08:42:02.631Z,66.85
2022-09-11T08:44:54.281Z,65.87
2022-09-11T08:47:36.440Z,65.72
2022-09-11T08:50:40.347Z,66.17
2022-09-11T08:53:14.716Z,65.93
2022-09-11T08:55:51.418Z,66.29
2022-09-11T08:58:29.619Z,66.82
2022-09-11T09:01:03.538Z,66.97
2022-09-11T09:04:01.297Z,66.75
2022-09-11T09:07:03.514Z,66.07
2022-09-11T09:09:48.395Z,65.87
2022-09-11T09:12:33.671Z,65.33
2022-09-11T09:15:13.984Z,65.29
2022-09-11T09:18:20.150Z,65.07
2022-09-11T09:21:01.362Z,64.32
2022-09-11T09:23:33.134Z,64.08
2022-09-11T09:26:01.192Z,63.68
2022-09-11T09:28:38.094Z,64.08
2022-09-11T09:31:07.622Z,64.56
2022-09-11T09:33:44.465Z,64.23
2022-09-11T09:36:17.621Z,63.93
2022-09-11T09:38:46.614Z,63.02
2022-09-11T09:41:26.441Z,62.87
2022-09-11T09:44:24.204Z,62.01
2022-09-11T09:46:53.438Z,62.37
2022-09-11T09:49:24.811Z,63.35
2022-09-11T09:51:51.994Z,62.64
2022-09-11T09:54:21.757Z,62.41
2022-09-11T09:56:57.170Z,60.21
2022-09-11T09:59:32.359Z,59.20
2022-09-11T10:01:59.354Z,59.19
2022-09-11T10:04:27.951Z,59.53
2022-09-11T10:07:06.358Z,59.90
2022-09-11T10:09:33.474Z,60.38
2022-09-11T10:12:08.974Z,60.84
2022-09-11T10:14:51.515Z,61.06
2022-09-11T10:17:35.445Z,61.74
2022-09-11T10:20:23.819Z,60.81
2022-09-11T10:22:51.671Z,60.16
2022-09-11T10:25:30.254Z,60.02
2022-09-11T10:28:05.981Z,59.68
2022-09-11T10:30:41.863Z,59.11
2022-09-11T10:33:41.412Z,59.84
2022-09-11T10:36:10.024Z,60.10
2022-09-11T10:38:45.139Z,60.60
2022-09-11T10:41:23.813Z,61.25
2022-09-11T10:44:01.871Z,60.05
2022-09-11T10:46:38.963Z,59.81
2022-09-11T10:49:05.953Z,58.20
2022-09-11T10:51:34.857Z,58.07
2022-09-11T10:54:07.752Z,57.71
2022-09-11T10:56:39.280Z,58.00
2022-09-11T10:59:12.536Z,58.07
2022-09-11T11:01:40.157Z,58.23
2022-09-11T11:04:12.370Z,58.36
2022-09-11T11:07:08.183Z,58.16
2022-09-11T11:09:38.053Z,56.31
2022-09-11T11:12:18.342Z,55.39
2022-09-11T11:15:25.870Z,51.99
2022-09-11T11:18:19.417Z,52.33
2022-09-11T11:21:01.795Z,51.77
2022-09-11T11:23:50.825Z,50.31
2022-09-11T11:26:36.942Z,50.97
2022-09-11T11:29:09.759Z,50.52
2022-09-11T11:31:44.430Z,51.26
2022-09-11T11:34:38.663Z,51.45
2022-09-11T11:37:14.616Z,52.32
2022-09-11T11:39:49.066Z,53.33
2022-09-11T11:42:30.400Z,53.23
2022-09-11T11:44:59.664Z,54.08
2022-09-11T11:47:31.240Z,54.25
2022-09-11T11:50:06.036Z,54.55
2022-09-11T11:52:51.985Z,54.73
2022-09-11T11:55:25.893Z,56.31
2022-09-11T11:58:04.675Z,57.56
2022-09-11T12:00:35.391Z,57.26
2022-09-11T12:03:11.474Z,58.05
2022-09-11T12:05:38.607Z,57.56
2022-09-11T12:08:12.317Z,58.24
2022-09-11T12:10:42.652Z,58.08
2022-09-11T12:13:15.660Z,58.26
2022-09-11T12:16:01.666Z,57.71
2022-09-11T12:18:29.234Z,58.44
2022-09-11T12:21:24.957Z,58.34
2022-09-11T12:23:57.784Z,58.19
2022-09-11T12:26:27.576Z,57.94
2022-09-11T12:29:11.886Z,58.43
2022-09-11T12:31:50.952Z,58.69
2022-09-11T12:34:43.324Z,58.56
2022-09-11T12:37:19.206Z,58.06
2022-09-11T12:39:51.198Z,57.75
2022-09-11T12:42:24.067Z,58.13
2022-09-11T12:44:50.898Z,58.30
2022-09-11T12:47:38.920Z,58.09
2022-09-11T12:50:05.643Z,58.06
2022-09-11T12:52:40.355Z,57.62
2022-09-11T12:55:23.377Z,57.77
2022-09-11T12:57:52.256Z,58.27
2022-09-11T13:00:36.789Z,59.20
2022-09-11T13:03:05.132Z,59.33
2022-09-11T13:05:37.923Z,60.13
2022-09-11T13:08:24.298Z,60.90
2022-09-11T13:10:51.105Z,60.82
2022-09-11T13:13:38.435Z,62.59
2022-09-11T13:16:20.313Z,63.99
2022-09-11T13:18:47.038Z,64.23
2022-09-11T13:21:19.569Z,65.71
2022-09-11T13:23:48.261Z,66.01
2022-09-11T13:26:26.345Z,66.61
2022-09-11T13:28:55.619Z,65.26
2022-09-11T13:31:32.041Z,65.82
2022-09-11T13:33:59.254Z,66.19
2022-09-11T13:36:26.249Z,66.45
2022-09-11T13:38:57.131Z,67.55
2022-09-11T13:41:32.295Z,67.69
2022-09-11T13:44:00.458Z,67.82
2022-09-11T13:46:30.592Z,67.86
2022-09-11T13:49:17.507Z,67.09
2022-09-11T13:51:46.279Z,67.00
2022-09-11T13:54:26.258Z,65.08
2022-09-11T13:56:56.015Z,64.71
2022-09-11T13:59:48.272Z,65.54
2022-09-11T14:02:47.565Z,65.68
2022-09-11T14:05:28.593Z,66.00
2022-09-11T14:08:07.901Z,65.56
2022-09-11T14:10:53.959Z,65.66
2022-09-11T14:13:23.227Z,65.99
2022-09-11T14:15:58.952Z,66.45
2022-09-11T14:18:32.262Z,66.42
2022-09-11T14:21:01.185Z,66.98
2022-09-11T14:23:29.598Z,66.49
2022-09-11T14:26:16.169Z,66.79
2022-09-11T14:28:58.156Z,67.06
2022-09-11T14:31:28.816Z,67.05
2022-09-11T14:34:29.905Z,67.32
2022-09-11T14:36:59.345Z,67.25
2022-09-11T14:39:28.828Z,67.35
2022-09-11T14:41:56.100Z,67.47
2022-09-11T14:44:24.245Z,67.97
2022-09-11T14:46:50.994Z,67.88
2022-09-11T14:49:17.945Z,67.35
2022-09-11T14:51:49.080Z,66.25
2022-09-11T14:54:16.367Z,66.74
2022-09-11T14:56:43.194Z,65.99
2022-09-11T14:59:10.340Z,66.20
2022-09-11T15:01:37.109Z,66.17
2022-09-11T15:04:03.988Z,66.86
2022-09-11T15:06:31.265Z,66.86
2022-09-11T15:08:58.530Z,66.53
2022-09-11T15:11:25.646Z,66.93
2022-09-11T15:14:14.530Z,67.28
2022-09-11T15:16:39.071Z,67.08
2022-09-11T15:19:05.773Z,67.10
2022-09-11T15:21:36.893Z,67.41
2022-09-11T15:24:05.651Z,67.25
2022-09-11T15:26:33.650Z,67.78
2022-09-11T15:29:00.705Z,67.83
2022-09-11T15:31:30.524Z,66.93
2022-09-11T15:33:57.297Z,66.63
2022-09-11T15:36:25.366Z,66.59
2022-09-11T15:38:53.492Z,66.91
2022-09-11T15:41:22.208Z,66.84
2022-09-11T15:43:50.597Z,66.44
2022-09-11T15:46:21.353Z,66.40
2022-09-11T15:48:49.675Z,66.76
2022-09-11T15:51:21.285Z,65.52
2022-09-11T15:53:48.800Z,66.02
2022-09-11T15:56:23.846Z,66.59
2022-09-11T15:58:52.873Z,67.21
2022-09-11T16:01:32.312Z,66.94
2022-09-11T16:04:01.963Z,67.41
2022-09-11T16:06:30.781Z,67.19
2022-09-11T16:08:58.924Z,67.26
2022-09-11T16:11:26.343Z,67.29
2022-09-11T16:13:53.743Z,67.01
2022-09-11T16:16:20.973Z,66.97
2022-09-11T16:18:47.809Z,67.62
2022-09-11T16:21:14.998Z,68.08
2022-09-11T16:23:42.161Z,67.46
2022-09-11T16:26:11.781Z,67.39
2022-09-11T16:28:39.908Z,67.52
2022-09-11T16:31:07.863Z,67.39
2022-09-11T16:33:40.539Z,67.47
2022-09-11T16:36:08.949Z,67.72
2022-09-11T16:38:38.098Z,68.09
2022-09-11T16:41:25.393Z,68.62
2022-09-11T16:43:53.252Z,68.62
2022-09-11T16:46:22.323Z,69.01
2022-09-11T16:48:53.953Z,68.81
2022-09-11T16:51:21.329Z,68.59
2022-09-11T16:53:48.204Z,68.76
2022-09-11T16:56:17.842Z,68.87
2022-09-11T16:58:44.737Z,68.81
2022-09-11T17:01:16.617Z,69.29
2022-09-11T17:03:45.615Z,69.96
2022-09-11T17:06:14.704Z,69.77
2022-09-11T17:08:42.718Z,70.15
2022-09-11T17:11:14.029Z,70.54
2022-09-11T17:13:42.466Z,71.00
2022-09-11T17:16:18.045Z,70.91
2022-09-11T17:18:47.518Z,70.71
2022-09-11T17:21:14.743Z,71.27
2022-09-11T17:23:42.582Z,71.74
2022-09-11T17:26:11.050Z,71.39
2022-09-11T17:28:38.538Z,71.59
2022-09-11T17:31:07.895Z,72.03
2022-09-11T17:33:35.826Z,72.21
2022-09-11T17:36:03.991Z,71.92
2022-09-11T17:38:31.315Z,72.48
2022-09-11T17:41:00.001Z,72.16
2022-09-11T17:43:26.744Z,72.18
2022-09-11T17:46:07.289Z,72.38
2022-09-11T17:48:35.172Z,72.21
2022-09-11T17:51:11.251Z,71.90
2022-09-11T17:53:44.190Z,72.57
2022-09-11T17:56:14.480Z,71.90
2022-09-11T17:58:42.899Z,71.81
2022-09-11T18:01:11.712Z,71.77
2022-09-11T18:03:41.511Z,71.59
2022-09-11T18:06:36.340Z,71.41
2022-09-11T18:09:12.035Z,71.18
2022-09-11T18:11:39.885Z,71.63
2022-09-11T18:14:07.017Z,71.25
2022-09-11T18:16:33.784Z,71.31
2022-09-11T18:19:01.614Z,71.37
2022-09-11T18:21:28.913Z,71.66
2022-09-11T18:23:56.080Z,71.61
2022-09-11T18:26:27.568Z,71.26
2022-09-11T18:29:06.321Z,71.73
2022-09-11T18:31:47.142Z,71.85
2022-09-11T18:34:16.349Z,71.95
2022-09-11T18:36:43.606Z,71.49
2022-09-11T18:39:10.981Z,71.47
2022-09-11T18:41:37.849Z,71.66
2022-09-11T18:44:11.055Z,71.65
2022-09-11T18:46:37.840Z,71.32
2022-09-11T18:49:05.173Z,71.87
2022-09-11T18:51:32.536Z,72.06
2022-09-11T18:54:00.232Z,72.13
2022-09-11T18:56:28.565Z,71.98
2022-09-11T18:58:56.272Z,72.13
2022-09-11T19:01:25.739Z,71.89
2022-09-11T19:03:53.428Z,71.92
2022-09-11T19:06:22.963Z,72.05
2022-09-11T19:08:50.278Z,72.22
2022-09-11T19:11:22.201Z,72.21
2022-09-11T19:13:49.583Z,71.74
2022-09-11T19:16:17.837Z,71.91
2022-09-11T19:18:44.570Z,71.90
2022-09-11T19:21:16.287Z,72.18
2022-09-11T19:23:44.896Z,72.20
2022-09-11T19:26:38.367Z,72.42
2022-09-11T19:29:06.522Z,72.00
2022-09-11T19:31:33.961Z,71.90
2022-09-11T19:34:01.750Z,71.90
2022-09-11T19:36:30.567Z,72.18
2022-09-11T19:39:00.647Z,72.23
2022-09-11T19:41:30.322Z,72.53
2022-09-11T19:44:04.374Z,72.24
2022-09-11T19:46:33.259Z,71.86
2022-09-11T19:49:03.248Z,72.24
2022-09-11T19:51:32.685Z,72.07
2022-09-11T19:54:00.719Z,72.29
2022-09-11T19:56:28.463Z,72.03
2022-09-11T19:58:55.465Z,72.02
2022-09-11T20:01:24.206Z,71.99
2022-09-11T20:03:55.434Z,71.73
2022-09-11T20:06:25.017Z,71.78
2022-09-11T20:09:07.953Z,71.86
2022-09-11T20:11:42.524Z,72.16
2022-09-11T20:14:09.807Z,72.08
2022-09-11T20:16:36.808Z,72.01
2022-09-11T20:19:06.515Z,71.97
2022-09-11T20:21:35.392Z,71.60
2022-09-11T20:24:02.826Z,71.49
2022-09-11T20:26:30.652Z,71.07
2022-09-11T20:29:02.678Z,71.33
2022-09-11T20:31:39.042Z,71.39
2022-09-11T20:34:09.175Z,71.65
2022-09-11T20:36:35.952Z,71.52
2022-09-11T20:39:03.124Z,71.76
2022-09-11T20:41:30.936Z,71.75
2022-09-11T20:44:00.386Z,71.88
2022-09-11T20:46:27.414Z,71.88
2022-09-11T20:48:54.402Z,72.12
2022-09-11T20:51:21.967Z,71.94
2022-09-11T20:53:49.156Z,71.99
2022-09-11T20:56:24.016Z,72.22
2022-09-11T20:58:51.398Z,71.77
2022-09-11T21:01:21.513Z,71.87
2022-09-11T21:03:53.624Z,72.23
2022-09-11T21:06:25.619Z,72.33
2022-09-11T21:08:58.246Z,72.48
2022-09-11T21:11:27.202Z,73.00
2022-09-11T21:13:54.079Z,72.94
2022-09-11T21:16:21.238Z,73.63
2022-09-11T21:18:52.985Z,73.57
2022-09-11T21:21:20.777Z,73.92
2022-09-11T21:23:47.989Z,74.02
2022-09-11T21:26:16.775Z,73.79
2022-09-11T21:28:43.626Z,74.09
2022-09-11T21:31:11.020Z,74.35
2022-09-11T21:33:38.026Z,74.22
2022-09-11T21:36:05.634Z,74.39
2022-09-11T21:38:32.347Z,74.57
2022-09-11T21:41:00.504Z,74.73
2022-09-11T21:43:28.138Z,74.55
2022-09-11T21:45:54.863Z,74.77
2022-09-11T21:48:21.574Z,75.01
2022-09-11T21:50:48.451Z,75.12
2022-09-11T21:53:15.710Z,75.30
2022-09-11T21:55:44.161Z,75.37
2022-09-11T21:58:21.017Z,75.45
2022-09-11T22:00:48.931Z,75.79
2022-09-11T22:03:18.642Z,75.64
2022-09-11T22:05:47.895Z,75.65
2022-09-11T22:08:18.109Z,76.16
2022-09-11T22:10:47.617Z,75.90
2022-09-11T22:13:15.116Z,76.36
2022-09-11T22:15:42.339Z,76.20
2022-09-11T22:18:09.200Z,76.19
2022-09-11T22:20:39.572Z,76.32
2022-09-11T22:23:06.972Z,76.64
2022-09-11T22:25:36.808Z,76.62
2022-09-11T22:28:04.621Z,76.61
2022-09-11T22:30:31.687Z,76.57
2022-09-11T22:32:58.648Z,77.14
2022-09-11T22:35:25.534Z,76.72
2022-09-11T22:37:52.361Z,76.92
2022-09-11T22:40:19.487Z,76.57
2022-09-11T22:42:46.162Z,76.71
2022-09-11T22:45:12.824Z,76.70
2022-09-11T22:47:39.493Z,76.79
2022-09-11T22:50:06.571Z,76.95
2022-09-11T22:52:33.300Z,76.80
2022-09-11T22:54:59.987Z,76.77
2022-09-11T22:57:29.102Z,76.68
2022-09-11T22:59:56.286Z,76.48
2022-09-11T23:02:23.091Z,76.57
2022-09-11T23:05:08.563Z,76.64
2022-09-11T23:07:35.272Z,76.44
2022-09-11T23:10:02.095Z,76.15
2022-09-11T23:12:28.873Z,76.15
2022-09-11T23:14:56.158Z,75.86
2022-09-11T23:17:22.880Z,75.54
2022-09-11T23:19:49.515Z,75.45
2022-09-11T23:22:16.236Z,74.98
2022-09-11T23:24:42.918Z,74.88
2022-09-11T23:27:09.633Z,74.46
2022-09-11T23:29:36.357Z,73.98
2022-09-11T23:32:03.230Z,73.59
2022-09-11T23:34:30.618Z,73.46
2022-09-11T23:36:57.301Z,73.28
2022-09-11T23:39:24.116Z,72.71
2022-09-11T23:41:50.818Z,72.77
2022-09-11T23:44:17.893Z,72.40
2022-09-11T23:46:44.824Z,72.57
2022-09-11T23:49:12.347Z,72.47
2022-09-11T23:51:42.757Z,72.12
2022-09-11T23:54:09.446Z,72.01
2022-09-11T23:56:36.149Z,71.64
2022-09-11T23:59:02.870Z,71.45
